Pagrindinis puslapis
METAR-TAF:

METAR-TAF

Oro uostai :

Udontanis, Tailandas

platuma: 17-23N, ilguma: 102-48E, Aukštis: 177 m

Dabartinis oras

Ataskaita buvo paskelbta 6 valandos ir 58 minutes, ne 13:00 UTC
Vėjas 4 kt iš Rytų
Temperatūra 28°C
Drėgmė 84%
Slėgis 1006 hPa
Matomumas 10 km arba daugiau
Mažai debesys ne aukštis 2800 ft

METAR: VTUD 301300Z 10004KT 9999 FEW028 28/25 Q1006 NOSIG

Laikas: 02:58 (19:58 UTC)

Prognozė

Ataskaita buvo paskelbta 2 valandos ir 58 minutes, ne 17:00 UTC
Prognozė galioja nuo 30 metu 18 UTC su 01 metu 18 UTC
Vėjas 5 kt iš Rytų/Šiaurės Rytų
Matomumas 10 km arba daugiau
Išsisklaidę debesys ne aukštis 2500 ft
Išsisklaidę debesys ne aukštis 10000 ft
Laikinai
nuo 01 metu 08 UTC su 01 metu 16 UTC
Vėjas 15 kt nuo kintamojo kryptimis
Matomumas: 4000 m
Mažai debesys ne aukštis 1800 ft, Liūtiniai kamuoliniai debesys.
Su prošvaistėmis ne aukštis 2500 ft
Su prošvaistėmis ne aukštis 8000 ft
perkūnija, lietus

TAF: VTUD 301700Z 3018/0118 07005KT 9999 SCT025 SCT100 TEMPO 0108/0116 VRB15KT 4000 TSRA FEW018CB BKN025 BKN080

Orai ataskaitas ir orų prognozės (METAR, TAF).

turimą stotys yra geltonos ir raudonos taškus žemėlapyje.

Perkelti pele per norėdami pamatyti stoties vardą.

Tada spustelėkite, norėdami matyti oro stebėjimo ir prognozės.

Norėdami pakeisti žemėlapį: spustelėkite ant žalios mygtukų su juodo kryžiaus žemyn,; žalią mygtuką su brūkšneliu, jei norite nutolinti; arba žalių rodyklių gretimoms žemėlapius.


METAR-TAF: